Latest Weather Observations for Noona

IDN60801

Issued at 3:33 pm EDT Sunday 19 November 2017 (issued every 30 minutes, with the page automatically refreshed every 10 minutes)

About weather observations | Map of weather stations | Latest weather observations for NSW | Other Formats
Station Details ID: 048250 Name: NOONA AWS Lat: -31.73 Lon: 144.93 Height: 179.0 m
Data from the previous 72 hours. | See also: Recent months for locations in New South Wales
Date/Time
EDT
Temp
°C
App
Temp
°C
Dew
Point
°C
Rel
Hum
%
Delta-T
°C
Wind Press
QNH
hPa
Press
MSL
hPa
Rain since
9am
mm
Dir  Spd
km/h
Gust
km/h
Spd
kts
Gust
kts
19/03:30pm 26.9 - 13.3 43 8.1 - - - - - - - 0.0
19/03:00pm 26.3 - 13.1 44 7.8 - - - - - - - 0.0
19/02:30pm 24.9 - 13.5 49 6.7 - - - - - - - 0.0
19/02:00pm 25.2 - 13.4 48 7.0 - - - - - - - 0.0
19/01:30pm 25.5 - 13.7 48 7.0 - - - - - - - 0.0
19/01:00pm 25.1 - 13.9 49 6.7 - - - - - - - 0.0
19/12:30pm 25.2 - 14.0 49 6.7 - - - - - - - 0.0
19/12:00pm 25.0 - 13.9 50 6.6 - - - - - - - 0.0
19/11:30am 25.2 - 13.7 49 6.8 - - - - - - - 0.0
19/11:00am 24.9 - 14.1 51 6.4 - - - - - - - 0.0
19/10:30am 23.8 - 13.9 54 5.8 - - - - - - - 0.0
19/10:00am 23.2 - 14.2 57 5.3 - - - - - - - 0.0
19/09:30am 22.6 - 14.4 60 4.9 - - - - - - - 0.0
19/09:00am 21.5 - 14.2 63 4.3 - - - - - - - 0.0
19/08:30am 21.2 - 14.4 65 4.0 - - - - - - - 0.0
19/08:00am 19.7 - 13.9 69 3.4 - - - - - - - 0.0
19/07:30am 18.6 - 13.5 72 2.9 - - - - - - - 0.0
19/07:00am 17.8 - 13.1 74 2.7 - - - - - - - 0.0
19/06:30am 17.1 - 12.8 76 2.4 - - - - - - - 0.0
19/06:00am 17.1 - 12.6 75 2.5 - - - - - - - 0.0
19/05:30am 17.4 - 12.5 73 2.7 - - - - - - - 0.0
19/05:00am 17.7 - 12.6 72 2.9 - - - - - - - 0.0
19/04:30am 18.1 - 12.5 70 3.1 - - - - - - - 0.0
19/04:00am 18.4 - 12.2 67 3.5 - - - - - - - 0.0
19/03:30am 18.9 - 12.2 65 3.8 - - - - - - - 0.0
19/03:00am 19.1 - 12.1 64 3.9 - - - - - - - 0.0
19/02:30am 19.5 - 12.0 62 4.2 - - - - - - - 0.0
19/02:00am 19.7 - 12.0 61 4.3 - - - - - - - 0.0
19/01:30am 19.4 - 12.2 63 4.0 - - - - - - - 0.0
19/01:00am 18.5 - 12.9 70 3.2 - - - - - - - 0.0
19/12:30am 18.4 - 13.1 71 3.0 - - - - - - - 0.0
19/12:00am 19.5 - 11.5 60 4.4 - - - - - - - 0.0
 
Date/Time
EDT
Temp
°C
App
Temp
°C
Dew
Point
°C
Rel
Hum
%
Delta-T
°C
Wind Press
QNH
hPa
Press
MSL
hPa
Rain since
9am
mm
Dir  Spd
km/h
Gust
km/h
Spd
kts
Gust
kts
18/11:30pm 19.4 - 11.4 60 4.4 - - - - - - - 0.0
18/11:00pm 19.0 - 12.0 64 3.9 - - - - - - - 0.0
18/10:30pm 19.6 - 11.6 60 4.4 - - - - - - - 0.0
18/10:00pm 20.4 - 10.8 54 5.3 - - - - - - - 0.0
18/09:30pm 20.7 - 10.8 53 5.5 - - - - - - - 0.0
18/09:00pm 21.7 - 11.1 51 5.9 - - - - - - - 0.0
18/08:30pm 23.9 - 11.9 47 6.9 - - - - - - - 0.0
18/08:00pm 25.0 - 10.5 40 8.1 - - - - - - - 0.0
18/07:30pm 25.5 - 10.1 38 8.6 - - - - - - - 0.0
18/07:00pm 26.4 - 11.7 40 8.5 - - - - - - - 0.0
18/06:30pm 26.4 - 12.1 41 8.3 - - - - - - - 0.0
18/06:00pm 27.4 - 10.6 35 9.5 - - - - - - - 0.0
18/05:30pm 26.9 - 10.6 36 9.2 - - - - - - - 0.0
18/05:00pm 28.5 - 10.2 32 10.4 - - - - - - - 0.0
18/04:30pm 30.0 - 10.0 29 11.4 - - - - - - - 0.0
18/04:00pm 31.1 - 6.2 21 13.4 - - - - - - - 0.0
18/03:30pm 30.2 - 6.1 22 12.9 - - - - - - - 0.0
18/03:00pm 29.2 - 7.2 25 11.9 - - - - - - - 0.0
18/02:30pm 28.3 - 8.1 28 11.1 - - - - - - - 0.0
18/02:00pm 27.6 - 9.0 31 10.3 - - - - - - - 0.0
18/01:30pm 30.5 - 5.7 21 13.2 - - - - - - - 0.0
18/01:00pm 29.5 - 11.1 32 10.6 - - - - - - - 0.0
18/12:30pm 28.4 - 10.6 33 10.2 - - - - - - - 0.0
18/12:00pm 27.7 - 11.7 37 9.3 - - - - - - - 0.0
18/11:30am 26.7 - 12.7 42 8.2 - - - - - - - 0.0
18/11:00am 26.0 - 13.5 46 7.4 - - - - - - - 0.0
18/10:30am 25.4 - 14.2 50 6.7 - - - - - - - 0.0
18/10:00am 24.5 - 14.0 52 6.2 - - - - - - - 0.0
18/09:30am 23.2 - 13.9 56 5.5 - - - - - - - 0.0
18/09:00am 22.8 - 14.1 58 5.1 - - - - - - - 0.0
18/08:30am 21.6 - 13.8 61 4.6 - - - - - - - 0.0
18/08:00am 20.6 - 13.6 64 4.1 - - - - - - - 0.0
18/07:30am 19.6 - 13.3 67 3.6 - - - - - - - 0.0
18/07:00am 18.1 - 12.3 69 3.2 - - - - - - - 0.0
18/06:30am 17.0 - 11.7 71 2.9 - - - - - - - 0.0
18/06:00am 16.6 - 10.7 68 3.2 - - - - - - - 0.0
18/05:30am 16.7 - 10.1 65 3.5 - - - - - - - 0.0
18/05:00am 16.5 - 6.9 53 4.8 - - - - - - - 0.0
18/04:30am 17.1 - 5.1 45 5.8 - - - - - - - 0.0
18/04:00am 17.3 - 4.6 43 6.1 - - - - - - - 0.0
18/03:30am 18.2 - 4.4 40 6.6 - - - - - - - 0.0
18/03:00am 18.9 - 4.7 39 6.9 - - - - - - - 0.0
18/02:30am 19.2 - 4.2 37 7.2 - - - - - - - 0.0
18/02:00am 19.2 - 4.2 37 7.2 - - - - - - - 0.0
18/01:30am 19.6 - 4.1 36 7.5 - - - - - - - 0.0
18/01:00am 20.4 - 4.0 34 7.9 - - - - - - - 0.0
18/12:30am 20.4 - 4.0 34 7.9 - - - - - - - 0.0
18/12:00am 21.0 - 3.7 32 8.4 - - - - - - - 0.0
 
Date/Time
EDT
Temp
°C
App
Temp
°C
Dew
Point
°C
Rel
Hum
%
Delta-T
°C
Wind Press
QNH
hPa
Press
MSL
hPa
Rain since
9am
mm
Dir  Spd
km/h
Gust
km/h
Spd
kts
Gust
kts
17/11:30pm 21.2 - 3.9 32 8.4 - - - - - - - 0.0
17/11:00pm 21.9 - 4.0 31 8.8 - - - - - - - 0.0
17/10:30pm 22.2 - 3.8 30 9.0 - - - - - - - 0.0
17/10:00pm 22.4 - 4.5 31 8.9 - - - - - - - 0.0
17/09:30pm 23.4 - 4.9 30 9.3 - - - - - - - 0.0
17/09:00pm 24.4 - 4.2 27 10.1 - - - - - - - 0.0
17/08:30pm 25.0 - 4.2 26 10.4 - - - - - - - 0.0
17/08:00pm 26.0 - 3.9 24 11.1 - - - - - - - 0.0
17/07:30pm 26.8 - 4.0 23 11.5 - - - - - - - 0.0
17/07:00pm 27.5 - 3.9 22 12.0 - - - - - - - 0.0
17/06:30pm 27.7 - 4.1 22 12.0 - - - - - - - 0.0
17/06:00pm 28.2 - 4.5 22 12.2 - - - - - - - 0.0
17/05:30pm 28.5 - 4.1 21 12.5 - - - - - - - 0.0
17/05:00pm 28.0 - 3.7 21 12.3 - - - - - - - 0.0
17/04:30pm 28.4 - 5.3 23 12.1 - - - - - - - 0.0
17/04:00pm 28.3 - 5.8 24 11.8 - - - - - - - 0.0
17/03:30pm 27.9 - 6.1 25 11.5 - - - - - - - 0.0
17/03:00pm 27.9 - 6.1 25 11.5 - - - - - - - 0.0
17/02:30pm 28.3 - 7.0 26 11.4 - - - - - - - 0.0
17/02:00pm 28.3 - 6.4 25 11.6 - - - - - - - 0.0
17/01:30pm 27.4 - 4.5 23 11.7 - - - - - - - 0.0
17/01:00pm 28.1 - 4.4 22 12.2 - - - - - - - 0.0
17/12:30pm 26.9 - 4.6 24 11.4 - - - - - - - 0.0
17/12:00pm 25.7 - 4.8 26 10.6 - - - - - - - 0.0
17/11:30am 25.3 - 4.4 26 10.5 - - - - - - - 0.0
17/11:00am 24.7 - 5.5 29 9.8 - - - - - - - 0.0
17/10:30am 23.5 - 5.4 31 9.2 - - - - - - - 0.0
17/10:00am 22.8 - 6.6 35 8.4 - - - - - - - 0.0
17/09:30am 22.6 - 9.4 43 7.2 - - - - - - - 0.0
17/09:00am 21.5 - 10.6 50 6.0 - - - - - - - 0.0
17/08:30am 19.7 - 11.5 59 4.6 - - - - - - - 0.0
17/08:00am 17.9 - 12.1 69 3.2 - - - - - - - 0.0
17/07:30am 15.0 - 11.0 77 2.1 - - - - - - - 0.0
17/07:00am 13.8 - 10.2 79 1.9 - - - - - - - 0.0
17/06:30am 15.3 - 11.9 80 1.9 - - - - - - - 0.0
17/06:00am 14.4 - 11.6 83 1.5 - - - - - - - 0.0
17/05:30am 14.4 - 11.6 83 1.5 - - - - - - - 0.0
17/05:00am 14.9 - 11.5 80 1.8 - - - - - - - 0.0
17/04:30am 15.5 - 11.9 79 2.0 - - - - - - - 0.0
17/04:00am 15.4 - 11.6 78 2.1 - - - - - - - 0.0
17/03:30am 16.0 - 11.8 76 2.3 - - - - - - - 0.0
17/03:00am 16.2 - 11.6 74 2.5 - - - - - - - 0.0
17/02:30am 16.7 - 11.6 72 2.8 - - - - - - - 0.0
17/02:00am 16.9 - 11.4 70 3.0 - - - - - - - 0.0
17/01:30am 17.1 - 11.2 68 3.2 - - - - - - - 0.0
17/01:00am 17.7 - 11.0 65 3.6 - - - - - - - 0.0
17/12:30am 18.4 - 11.2 63 3.9 - - - - - - - 0.0
17/12:00am 18.8 - 10.9 60 4.3 - - - - - - - 0.0
 
Date/Time
EDT
Temp
°C
App
Temp
°C
Dew
Point
°C
Rel
Hum
%
Delta-T
°C
Wind Press
QNH
hPa
Press
MSL
hPa
Rain since
9am
mm
Dir  Spd
km/h
Gust
km/h
Spd
kts
Gust
kts
16/11:30pm 18.9 - 10.2 57 4.7 - - - - - - - 0.0
16/11:00pm 19.4 - 9.0 51 5.5 - - - - - - - 0.0
16/10:30pm 20.1 - 9.4 50 5.7 - - - - - - - 0.0
16/10:00pm 20.7 - 9.6 49 6.0 - - - - - - - 0.0
16/09:30pm 21.0 - 9.9 49 6.0 - - - - - - - 0.0
16/09:00pm 21.2 - 9.8 48 6.2 - - - - - - - 0.0
16/08:30pm 21.9 - 9.8 46 6.6 - - - - - - - 0.0
16/08:00pm 22.8 - 9.9 44 7.1 - - - - - - - 0.0
16/07:30pm 23.8 - 10.1 42 7.6 - - - - - - - 0.0
16/07:00pm 24.1 - 10.0 41 7.8 - - - - - - - 0.0
16/06:30pm 24.8 - 10.3 40 8.1 - - - - - - - 0.0
16/06:00pm 24.6 - 11.2 43 7.6 - - - - - - - 0.0
16/05:30pm 23.9 - 11.3 45 7.1 - - - - - - - 0.0
16/05:00pm 23.8 - 11.8 47 6.8 - - - - - - - 0.0
16/04:30pm 23.9 - 11.6 46 7.0 - - - - - - - 0.0
16/04:00pm 24.3 - 12.6 48 6.8 - - - - - - - 0.0

Other Formats:

Comma delimited format used in spreadsheet applications
http://www.bom.gov.au/fwo/IDN60801/IDN60801.94798.axf

JavaScript Object Notation format (JSON) in row-major order
http://www.bom.gov.au/fwo/IDN60801/IDN60801.94798.json